Time;durP1;ratioP1;P1;durP2;ratioP2;P2;SDS_P1;SDS_P2;PMS_P1;PMS_P2;Temp;Humidity;BMP_temperature;BMP_pressure;BME280_temperature;BME280_humidity;BME280_pressure;Samples;Min_cycle;Max_cycle;Signal;HPM_P1;HPM_P2
2022/03/22 00:00:33;;;;;;;;;;;;;;;;;;5115803;28;19961;-78
2022/03/22 00:02:58;;;;;;;;;;;;;;;;;;5149029;27;19970;-78
2022/03/22 00:05:24;;;;;;;;;;;;;;;;;;5115699;28;19967;-78
2022/03/22 00:07:49;;;;;;;;;;;;;;;;;;5115617;28;19923;-78
2022/03/22 00:10:15;;;;;;;;;;;;;;;;;;5115900;28;20276;-78
2022/03/22 00:12:41;;;;;;;;;;;;;;;;;;5115699;28;20291;-78
2022/03/22 00:15:08;;;;;;;;;;;;;;;;;;5115524;28;19923;-79
2022/03/22 00:17:34;;;;;;;;;;;;;;;;;;5115336;28;19927;-80
2022/03/22 00:19:59;;;;;;;;;;;;;;;;;;5115403;28;19935;-77
2022/03/22 00:22:25;;;;;;;;;;;;;;;;;;5115516;28;20287;-78
2022/03/22 00:24:51;;;;;;;;;;;;;;;;;;5115386;28;20276;-78
2022/03/22 00:27:16;;;;;;;;;;;;;;;;;;5115382;28;19922;-78
2022/03/22 00:29:42;;;;;;;;;;;;;;;;;;5115233;28;20367;-79
2022/03/22 00:32:08;;;;;;;;;;;;;;;;;;5114936;28;19916;-76
2022/03/22 00:34:34;;;;;;;;;;;;;;;;;;5114243;28;19919;-76
2022/03/22 00:37:00;;;;;;;;;;;;;;;;;;5114416;28;19969;-75
2022/03/22 00:39:25;;;;;;;;;;;;;;;;;;5115227;28;19920;-76
2022/03/22 00:41:53;;;;;;;;;;;;;;;;;;5114827;28;19923;-75
2022/03/22 00:44:18;;;;;;;;;;;;;;;;;;5115152;28;20278;-76
2022/03/22 00:46:44;;;;;;;;;;;;;;;;;;5115050;28;20014;-75
2022/03/22 00:49:09;;;;;;;;;;;;;;;;;;5114948;28;19916;-76
2022/03/22 00:51:35;;;;;;;;;;;;;;;;;;5115065;28;19954;-75
2022/03/22 00:54:02;;;;;;;;;;;;;;;;;;5115144;28;19916;-77
2022/03/22 00:56:31;;;;;;;;;;;;;;;;;;5114948;28;19960;-77
2022/03/22 01:01:40;;;;;;;;;;;;;;;;;;5114886;28;19987;-76
2022/03/22 01:04:06;;;;;;;;;;;;;;;;;;5114783;27;20002;-76
2022/03/22 01:06:32;;;;;;;;;;;;;;;;;;5114844;28;20327;-75
2022/03/22 01:08:57;;;;;;;;;;;;;;;;;;5114762;28;19923;-77
2022/03/22 01:11:23;;;;;;;;;;;;;;;;;;5114515;28;19943;-76
2022/03/22 01:13:49;;;;;;;;;;;;;;;;;;5114047;28;20291;-76
2022/03/22 01:16:15;;;;;;;;;;;;;;;;;;5114512;28;20280;-76
2022/03/22 01:18:40;;;;;;;;;;;;;;;;;;5147470;27;20319;-77
2022/03/22 01:21:06;;;;;;;;;;;;;;;;;;5114474;28;20049;-76
2022/03/22 01:23:31;;;;;;;;;;;;;;;;;;5114332;28;20348;-76
2022/03/22 01:25:57;;;;;;;;;;;;;;;;;;5114443;28;19916;-75
2022/03/22 01:28:22;;;;;;;;;;;;;;;;;;5114330;28;19920;-76
2022/03/22 01:30:49;;;;;;;;;;;;;;;;;;5114242;28;19961;-76
2022/03/22 01:33:15;;;;;;;;;;;;;;;;;;5114251;28;20443;-76
2022/03/22 01:35:41;;;;;;;;;;;;;;;;;;5114131;28;19959;-76
2022/03/22 01:38:06;;;;;;;;;;;;;;;;;;5114455;28;19961;-76
2022/03/22 01:40:32;;;;;;;;;;;;;;;;;;5147117;27;19920;-77
2022/03/22 01:42:58;;;;;;;;;;;;;;;;;;5114312;28;19920;-76
2022/03/22 01:45:23;;;;;;;;;;;;;;;;;;5147260;27;19951;-75
2022/03/22 01:47:49;;;;;;;;;;;;;;;;;;5114122;28;19984;-77
2022/03/22 01:50:17;;;;;;;;;;;;;;;;;;5114069;28;19916;-76
2022/03/22 01:52:46;;;;;;;;;;;;;;;;;;5113990;28;19969;-75
2022/03/22 01:55:15;;;;;;;;;;;;;;;;;;5113718;28;20403;-78
2022/03/22 01:57:41;;;;;;;;;;;;;;;;;;5113885;28;19916;-77
2022/03/22 02:00:08;;;;;;;;;;;;;;;;;;5113823;28;19920;-77
2022/03/22 02:08:06;;;;;;;;;;;;;;;;;;5113825;28;19923;-78
2022/03/22 02:10:31;;;;;;;;;;;;;;;;;;5113750;28;19919;-77
2022/03/22 02:12:56;;;;;;;;;;;;;;;;;;5113651;28;20287;-76
2022/03/22 02:15:22;;;;;;;;;;;;;;;;;;5113487;28;20292;-77
2022/03/22 02:17:47;;;;;;;;;;;;;;;;;;5113588;28;19920;-77
2022/03/22 02:20:13;;;;;;;;;;;;;;;;;;5113566;28;19924;-77
2022/03/22 02:22:52;;;;;;;;;;;;;;;;;;5113479;28;19920;-77
2022/03/22 02:25:18;;;;;;;;;;;;;;;;;;5114003;28;19923;-77
2022/03/22 02:27:44;;;;;;;;;;;;;;;;;;5117861;28;20387;-77
2022/03/22 02:30:13;;;;;;;;;;;;;;;;;;5117939;28;19922;-76
2022/03/22 02:32:38;;;;;;;;;;;;;;;;;;5117777;28;19916;-76
2022/03/22 02:35:04;;;;;;;;;;;;;;;;;;5117665;27;20405;-77
2022/03/22 02:37:30;;;;;;;;;;;;;;;;;;5117666;28;20288;-77
2022/03/22 02:39:55;;;;;;;;;;;;;;;;;;5117374;28;19916;-77
2022/03/22 02:42:21;;;;;;;;;;;;;;;;;;5117588;28;19920;-77
2022/03/22 02:44:46;;;;;;;;;;;;;;;;;;5150605;27;20034;-77
2022/03/22 02:47:12;;;;;;;;;;;;;;;;;;5117512;28;19923;-77
2022/03/22 02:49:37;;;;;;;;;;;;;;;;;;5117347;28;19917;-77
2022/03/22 02:52:03;;;;;;;;;;;;;;;;;;5117280;28;19915;-76
2022/03/22 02:54:28;;;;;;;;;;;;;;;;;;5117282;28;20014;-77
2022/03/22 02:56:54;;;;;;;;;;;;;;;;;;5117237;28;19980;-77
2022/03/22 02:59:19;;;;;;;;;;;;;;;;;;5117180;28;19923;-77
2022/03/22 03:01:45;;;;;;;;;;;;;;;;;;5117222;28;19926;-76
2022/03/22 03:04:10;;;;;;;;;;;;;;;;;;5150260;27;19927;-77
2022/03/22 03:06:36;;;;;;;;;;;;;;;;;;5117144;28;19920;-77
2022/03/22 03:09:01;;;;;;;;;;;;;;;;;;5117155;28;19915;-77
2022/03/22 03:11:27;;;;;;;;;;;;;;;;;;5117085;28;20290;-76
2022/03/22 03:16:39;;;;;;;;;;;;;;;;;;5117274;28;20432;-77
2022/03/22 03:19:04;;;;;;;;;;;;;;;;;;5116931;28;19923;-76
2022/03/22 03:21:30;;;;;;;;;;;;;;;;;;5149924;27;20367;-76
2022/03/22 03:23:55;;;;;;;;;;;;;;;;;;5149863;27;19916;-76
2022/03/22 03:26:21;;;;;;;;;;;;;;;;;;5117041;28;19919;-76
2022/03/22 03:28:46;;;;;;;;;;;;;;;;;;5116972;28;19920;-76
2022/03/22 03:31:12;;;;;;;;;;;;;;;;;;5116894;28;19926;-76
2022/03/22 03:33:37;;;;;;;;;;;;;;;;;;5116585;28;19962;-77
2022/03/22 03:36:03;;;;;;;;;;;;;;;;;;5116028;28;19916;-76
2022/03/22 03:38:29;;;;;;;;;;;;;;;;;;5116526;28;19915;-76
2022/03/22 03:43:38;;;;;;;;;;;;;;;;;;5116757;28;19926;-76
2022/03/22 03:48:47;;;;;;;;;;;;;;;;;;5116363;28;20299;-77
2022/03/22 03:51:12;;;;;;;;;;;;;;;;;;5116515;28;19916;-76
2022/03/22 03:53:38;;;;;;;;;;;;;;;;;;5116289;28;19927;-76
2022/03/22 03:56:04;;;;;;;;;;;;;;;;;;5116127;28;20303;-76
2022/03/22 03:58:30;;;;;;;;;;;;;;;;;;5116132;28;19963;-76
2022/03/22 04:00:55;;;;;;;;;;;;;;;;;;5116085;28;19961;-77
2022/03/22 04:03:21;;;;;;;;;;;;;;;;;;5115969;28;19926;-76
2022/03/22 04:05:46;;;;;;;;;;;;;;;;;;5115906;28;19922;-77
2022/03/22 04:08:12;;;;;;;;;;;;;;;;;;5114609;28;19923;-76
2022/03/22 04:10:37;;;;;;;;;;;;;;;;;;5115788;28;19922;-76
2022/03/22 04:13:02;;;;;;;;;;;;;;;;;;5115851;28;19915;-77
2022/03/22 04:15:29;;;;;;;;;;;;;;;;;;5115654;28;19961;-76
2022/03/22 04:17:57;;;;;;;;;;;;;;;;;;5115693;28;19916;-77
2022/03/22 04:20:22;;;;;;;;;;;;;;;;;;5115649;28;20313;-77
2022/03/22 04:22:48;;;;;;;;;;;;;;;;;;5115633;28;19916;-77
2022/03/22 04:25:13;;;;;;;;;;;;;;;;;;5115540;28;19923;-87
2022/03/22 04:33:06;;;;;;;;;;;;;;;;;;5115494;28;19953;-79
2022/03/22 04:35:32;;;;;;;;;;;;;;;;;;5105623;28;19963;-79
2022/03/22 04:37:57;;;;;;;;;;;;;;;;;;5095023;28;19920;-81
2022/03/22 04:40:25;;;;;;;;;;;;;;;;;;5094511;28;20423;-79
2022/03/22 04:42:51;;;;;;;;;;;;;;;;;;5107445;28;19916;-80
2022/03/22 04:45:17;;;;;;;;;;;;;;;;;;5115198;28;20403;-81
2022/03/22 04:47:45;;;;;;;;;;;;;;;;;;5113478;28;19963;-79
2022/03/22 04:50:11;;;;;;;;;;;;;;;;;;5113182;28;19920;-79
2022/03/22 04:58:05;;;;;;;;;;;;;;;;;;5094893;28;20026;-79
2022/03/22 05:00:30;;;;;;;;;;;;;;;;;;5094720;28;19952;-79
2022/03/22 05:02:56;;;;;;;;;;;;;;;;;;5096436;28;20370;-79
2022/03/22 05:06:25;;;;;;;;;;;;;;;;;;5094426;28;19920;-78
2022/03/22 05:08:07;;;;;;;;;;;;;;;;;;5104025;28;19916;-79
2022/03/22 05:10:33;;;;;;;;;;;;;;;;;;5114624;28;19915;-81
2022/03/22 05:12:58;;;;;;;;;;;;;;;;;;5106464;28;20015;-80
2022/03/22 05:15:24;;;;;;;;;;;;;;;;;;5097907;28;19927;-79
2022/03/22 05:17:49;;;;;;;;;;;;;;;;;;5138438;27;19924;-79
2022/03/22 05:20:15;;;;;;;;;;;;;;;;;;5104306;28;19920;-79
2022/03/22 05:22:42;;;;;;;;;;;;;;;;;;5100289;28;19916;-81
2022/03/22 05:25:09;;;;;;;;;;;;;;;;;;5115034;28;20390;-80
2022/03/22 05:27:36;;;;;;;;;;;;;;;;;;5106084;28;20379;-79
2022/03/22 05:30:02;;;;;;;;;;;;;;;;;;5093990;28;20392;-77
2022/03/22 05:32:27;;;;;;;;;;;;;;;;;;5093855;28;20065;-79
2022/03/22 05:34:53;;;;;;;;;;;;;;;;;;5104519;28;19916;-80
2022/03/22 05:37:21;;;;;;;;;;;;;;;;;;5094390;28;19959;-79
2022/03/22 05:39:46;;;;;;;;;;;;;;;;;;5093819;28;19947;-81
2022/03/22 05:42:13;;;;;;;;;;;;;;;;;;5093759;28;20318;-80
2022/03/22 05:44:39;;;;;;;;;;;;;;;;;;5126471;27;20268;-80
2022/03/22 05:47:06;;;;;;;;;;;;;;;;;;5092386;28;20074;-79
2022/03/22 05:49:35;;;;;;;;;;;;;;;;;;5092836;28;20381;-79
2022/03/22 05:52:00;;;;;;;;;;;;;;;;;;5096929;28;19916;-79
2022/03/22 05:54:25;;;;;;;;;;;;;;;;;;5113813;28;20018;-79
2022/03/22 05:56:51;;;;;;;;;;;;;;;;;;5113886;28;19988;-78
2022/03/22 05:59:17;;;;;;;;;;;;;;;;;;5113682;28;19920;-79
2022/03/22 06:01:44;;;;;;;;;;;;;;;;;;5113895;28;19920;-78
2022/03/22 06:04:09;;;;;;;;;;;;;;;;;;5113847;28;19922;-79
2022/03/22 06:06:35;;;;;;;;;;;;;;;;;;5129697;27;19916;-79
2022/03/22 06:09:01;;;;;;;;;;;;;;;;;;5113714;28;20018;-80
2022/03/22 06:11:26;;;;;;;;;;;;;;;;;;5113644;28;19939;-79
2022/03/22 06:13:52;;;;;;;;;;;;;;;;;;5113607;28;20390;-79
2022/03/22 06:16:18;;;;;;;;;;;;;;;;;;5113588;28;19922;-79
2022/03/22 06:18:43;;;;;;;;;;;;;;;;;;5113641;28;19920;-79
2022/03/22 06:21:09;;;;;;;;;;;;;;;;;;5113648;28;20014;-79
2022/03/22 06:23:34;;;;;;;;;;;;;;;;;;5113518;28;19923;-79
2022/03/22 06:26:01;;;;;;;;;;;;;;;;;;5113906;28;19915;-78
2022/03/22 06:28:26;;;;;;;;;;;;;;;;;;5113607;28;19923;-79
2022/03/22 06:30:52;;;;;;;;;;;;;;;;;;5113592;28;19915;-80
2022/03/22 06:33:18;;;;;;;;;;;;;;;;;;5119058;28;20022;-80
2022/03/22 06:35:44;;;;;;;;;;;;;;;;;;5093020;28;19927;-79
2022/03/22 06:38:10;;;;;;;;;;;;;;;;;;5093212;28;19955;-80
2022/03/22 06:40:38;;;;;;;;;;;;;;;;;;5092901;28;19959;-81
2022/03/22 06:43:04;;;;;;;;;;;;;;;;;;5125297;28;19966;-80
2022/03/22 06:45:30;;;;;;;;;;;;;;;;;;5093047;28;20423;-80
2022/03/22 06:47:55;;;;;;;;;;;;;;;;;;5093039;28;20016;-81
2022/03/22 06:50:21;;;;;;;;;;;;;;;;;;5092981;28;19924;-79
2022/03/22 06:52:47;;;;;;;;;;;;;;;;;;5092934;28;19912;-78
2022/03/22 06:55:16;;;;;;;;;;;;;;;;;;5092878;28;19916;-80
2022/03/22 06:57:41;;;;;;;;;;;;;;;;;;5092913;28;19920;-79
2022/03/22 07:00:08;;;;;;;;;;;;;;;;;;5092848;28;20378;-79
2022/03/22 07:02:35;;;;;;;;;;;;;;;;;;5092854;28;19920;-80
2022/03/22 07:05:01;;;;;;;;;;;;;;;;;;5093071;28;19959;-79
2022/03/22 07:07:27;;;;;;;;;;;;;;;;;;5092762;28;19920;-79
2022/03/22 07:09:52;;;;;;;;;;;;;;;;;;5092818;28;20288;-79
2022/03/22 07:12:18;;;;;;;;;;;;;;;;;;5094795;28;19916;-79
2022/03/22 07:14:43;;;;;;;;;;;;;;;;;;5095268;28;19920;-79
2022/03/22 07:17:09;;;;;;;;;;;;;;;;;;5096551;28;19916;-79
2022/03/22 07:19:34;;;;;;;;;;;;;;;;;;5096536;28;19923;-81
2022/03/22 07:22:00;;;;;;;;;;;;;;;;;;5096707;28;20348;-80
2022/03/22 07:24:25;;;;;;;;;;;;;;;;;;5096329;28;19979;-80
2022/03/22 07:26:50;;;;;;;;;;;;;;;;;;5096297;28;19916;-80
2022/03/22 07:29:16;;;;;;;;;;;;;;;;;;5102386;28;19916;-79
2022/03/22 07:31:41;;;;;;;;;;;;;;;;;;5108233;28;19945;-79
2022/03/22 07:34:08;;;;;;;;;;;;;;;;;;5101897;28;19967;-78
2022/03/22 07:36:35;;;;;;;;;;;;;;;;;;5100030;28;19945;-79
2022/03/22 07:39:01;;;;;;;;;;;;;;;;;;5145783;27;19922;-79
2022/03/22 07:41:26;;;;;;;;;;;;;;;;;;5101979;28;19924;-80
2022/03/22 07:43:54;;;;;;;;;;;;;;;;;;5114240;28;19919;-80
2022/03/22 07:46:20;;;;;;;;;;;;;;;;;;5104788;28;20471;-79
2022/03/22 07:48:46;;;;;;;;;;;;;;;;;;5109910;28;20021;-81
2022/03/22 07:53:55;;;;;;;;;;;;;;;;;;5096121;28;19927;-80
2022/03/22 07:56:20;;;;;;;;;;;;;;;;;;5095812;28;19971;-79
2022/03/22 07:58:46;;;;;;;;;;;;;;;;;;5101090;28;19924;-78
2022/03/22 08:01:11;;;;;;;;;;;;;;;;;;5104115;28;19965;-79
2022/03/22 08:03:37;;;;;;;;;;;;;;;;;;5106413;28;19927;-79
2022/03/22 08:06:02;;;;;;;;;;;;;;;;;;5103142;28;19916;-81
2022/03/22 08:08:28;;;;;;;;;;;;;;;;;;5103814;28;19927;-80
2022/03/22 08:10:53;;;;;;;;;;;;;;;;;;5108568;28;19924;-81
2022/03/22 08:13:19;;;;;;;;;;;;;;;;;;5104554;28;19920;-79
2022/03/22 08:15:45;;;;;;;;;;;;;;;;;;5104359;28;19920;-79
2022/03/22 08:18:10;;;;;;;;;;;;;;;;;;5102549;28;19924;-81
2022/03/22 08:20:36;;;;;;;;;;;;;;;;;;5096894;28;19947;-79
2022/03/22 08:23:06;;;;;;;;;;;;;;;;;;5098283;28;19970;-79
2022/03/22 08:25:39;;;;;;;;;;;;;;;;;;5107463;28;20268;-81
2022/03/22 08:28:06;;;;;;;;;;;;;;;;;;5113629;28;19923;-80
2022/03/22 08:30:32;;;;;;;;;;;;;;;;;;5107205;28;19920;-79
2022/03/22 08:32:59;;;;;;;;;;;;;;;;;;5104989;28;19977;-81
2022/03/22 08:35:25;;;;;;;;;;;;;;;;;;5097176;28;20334;-81
2022/03/22 08:37:50;;;;;;;;;;;;;;;;;;5108065;28;19924;-81
2022/03/22 08:40:16;;;;;;;;;;;;;;;;;;5102900;28;19927;-80
2022/03/22 08:42:45;;;;;;;;;;;;;;;;;;5104905;28;19920;-80
2022/03/22 08:45:18;;;;;;;;;;;;;;;;;;5111511;27;19923;-81
2022/03/22 08:47:45;;;;;;;;;;;;;;;;;;5099445;28;19931;-80
2022/03/22 08:50:15;;;;;;;;;;;;;;;;;;5094535;28;19971;-81
2022/03/22 08:52:40;;;;;;;;;;;;;;;;;;5129395;27;19916;-83
2022/03/22 08:55:07;;;;;;;;;;;;;;;;;;5094321;28;20403;-81
2022/03/22 08:57:33;;;;;;;;;;;;;;;;;;5094596;28;19916;-82
2022/03/22 08:59:58;;;;;;;;;;;;;;;;;;5094295;28;19919;-80
2022/03/22 09:02:24;;;;;;;;;;;;;;;;;;5094373;28;20284;-81
2022/03/22 09:07:33;;;;;;;;;;;;;;;;;;5094513;28;20026;-82
2022/03/22 09:09:58;;;;;;;;;;;;;;;;;;5099543;28;20392;-80
2022/03/22 09:12:24;;;;;;;;;;;;;;;;;;5108918;28;20031;-80
2022/03/22 09:14:51;;;;;;;;;;;;;;;;;;5094011;28;20078;-80
2022/03/22 09:17:17;;;;;;;;;;;;;;;;;;5093135;28;19916;-80
2022/03/22 09:19:42;;;;;;;;;;;;;;;;;;5091811;28;20033;-82
2022/03/22 09:22:09;;;;;;;;;;;;;;;;;;5093797;28;20273;-81
2022/03/22 09:24:35;;;;;;;;;;;;;;;;;;5094008;28;19920;-79
2022/03/22 09:27:01;;;;;;;;;;;;;;;;;;5093847;28;19920;-81
2022/03/22 09:29:26;;;;;;;;;;;;;;;;;;5094020;28;19927;-79
2022/03/22 09:31:52;;;;;;;;;;;;;;;;;;5094224;28;19916;-81
2022/03/22 09:34:18;;;;;;;;;;;;;;;;;;5093453;28;20015;-83
2022/03/22 09:36:43;;;;;;;;;;;;;;;;;;5126613;27;20390;-81
2022/03/22 09:39:09;;;;;;;;;;;;;;;;;;5093743;28;19969;-77
2022/03/22 09:41:37;;;;;;;;;;;;;;;;;;5093610;28;19923;-78
2022/03/22 09:44:03;;;;;;;;;;;;;;;;;;5093773;28;20018;-79
2022/03/22 09:46:29;;;;;;;;;;;;;;;;;;5093748;28;20358;-78
2022/03/22 09:48:57;;;;;;;;;;;;;;;;;;5093728;28;19973;-79
2022/03/22 09:54:07;;;;;;;;;;;;;;;;;;5093824;28;19962;-79
2022/03/22 09:56:33;;;;;;;;;;;;;;;;;;5092257;28;19920;-80
2022/03/22 09:58:59;;;;;;;;;;;;;;;;;;5093477;28;19939;-80
2022/03/22 10:01:24;;;;;;;;;;;;;;;;;;5093478;28;19980;-79
2022/03/22 10:03:57;;;;;;;;;;;;;;;;;;5093370;28;20002;-79
2022/03/22 10:06:22;;;;;;;;;;;;;;;;;;5093414;28;19916;-79
2022/03/22 10:08:51;;;;;;;;;;;;;;;;;;5093255;28;19920;-79
2022/03/22 10:11:17;;;;;;;;;;;;;;;;;;5126058;27;19923;-79
2022/03/22 10:14:09;;;;;;;;;;;;;;;;;;5126144;27;19977;-79
2022/03/22 10:16:45;;;;;;;;;;;;;;;;;;5097369;28;19943;-78
2022/03/22 10:19:21;;;;;;;;;;;;;;;;;;5113426;28;19965;-81
2022/03/22 10:21:46;;;;;;;;;;;;;;;;;;5113436;28;19922;-79
2022/03/22 10:24:15;;;;;;;;;;;;;;;;;;5111479;28;19919;-79
2022/03/22 10:26:44;;;;;;;;;;;;;;;;;;5095540;28;19923;-79
2022/03/22 10:29:11;;;;;;;;;;;;;;;;;;5099967;28;19924;-80
2022/03/22 10:31:40;;;;;;;;;;;;;;;;;;5093071;28;19938;-80
2022/03/22 10:34:09;;;;;;;;;;;;;;;;;;5109980;28;20291;-81
2022/03/22 10:36:37;;;;;;;;;;;;;;;;;;5113817;28;19926;-80
2022/03/22 10:39:07;;;;;;;;;;;;;;;;;;5103325;28;19921;-81
2022/03/22 10:41:37;;;;;;;;;;;;;;;;;;5106646;28;19927;-81
2022/03/22 10:44:10;;;;;;;;;;;;;;;;;;5100430;28;19920;-80
2022/03/22 10:46:37;;;;;;;;;;;;;;;;;;5102966;28;19919;-83
2022/03/22 10:49:08;;;;;;;;;;;;;;;;;;5117556;28;20015;-81
2022/03/22 10:51:44;;;;;;;;;;;;;;;;;;5117508;28;19945;-82
2022/03/22 10:54:15;;;;;;;;;;;;;;;;;;5150748;27;20309;-82
2022/03/22 10:56:43;;;;;;;;;;;;;;;;;;5107775;28;19916;-82
2022/03/22 10:59:10;;;;;;;;;;;;;;;;;;5147045;27;20402;-81
2022/03/22 11:01:36;;;;;;;;;;;;;;;;;;5096929;28;20395;-84
2022/03/22 11:04:04;;;;;;;;;;;;;;;;;;5097484;28;19962;-82
2022/03/22 11:06:30;;;;;;;;;;;;;;;;;;5096599;28;19916;-83
2022/03/22 11:08:55;;;;;;;;;;;;;;;;;;5096481;28;20372;-81
2022/03/22 11:11:21;;;;;;;;;;;;;;;;;;5108204;28;19919;-81
2022/03/22 11:13:46;;;;;;;;;;;;;;;;;;5103762;28;19924;-80
2022/03/22 11:16:12;;;;;;;;;;;;;;;;;;5106577;28;20446;-83
2022/03/22 11:18:38;;;;;;;;;;;;;;;;;;5112857;28;19924;-82
2022/03/22 11:21:04;;;;;;;;;;;;;;;;;;5114330;28;19928;-81
2022/03/22 11:23:30;;;;;;;;;;;;;;;;;;5116645;28;19942;-83
2022/03/22 11:26:12;;;;;;;;;;;;;;;;;;5106533;28;19927;-82
2022/03/22 11:28:38;;;;;;;;;;;;;;;;;;5102537;28;19967;-83
2022/03/22 11:31:05;;;;;;;;;;;;;;;;;;5112741;28;20459;-82
2022/03/22 11:36:16;;;;;;;;;;;;;;;;;;5116454;28;19969;-82
2022/03/22 11:38:42;;;;;;;;;;;;;;;;;;5102123;28;20276;-82
2022/03/22 11:44:12;;;;;;;;;;;;;;;;;;5096235;28;19931;-83
2022/03/22 11:46:38;;;;;;;;;;;;;;;;;;5097998;28;19928;-84
2022/03/22 11:49:11;;;;;;;;;;;;;;;;;;5106097;28;20376;-83
2022/03/22 11:51:45;;;;;;;;;;;;;;;;;;5099566;28;20350;-83
2022/03/22 11:54:11;;;;;;;;;;;;;;;;;;5106987;28;19923;-81
2022/03/22 11:56:44;;;;;;;;;;;;;;;;;;5110374;28;20006;-83
2022/03/22 11:59:13;;;;;;;;;;;;;;;;;;5095147;28;19955;-83
2022/03/22 12:01:40;;;;;;;;;;;;;;;;;;5115347;28;20022;-82
2022/03/22 12:04:14;;;;;;;;;;;;;;;;;;5141336;27;19916;-83
2022/03/22 12:06:39;;;;;;;;;;;;;;;;;;5096179;28;19916;-82
2022/03/22 12:09:06;;;;;;;;;;;;;;;;;;5106848;28;20375;-79
2022/03/22 12:11:32;;;;;;;;;;;;;;;;;;5105652;28;19943;-81
2022/03/22 12:13:57;;;;;;;;;;;;;;;;;;5098159;28;20332;-80
2022/03/22 12:16:26;;;;;;;;;;;;;;;;;;5106063;28;19920;-80
2022/03/22 12:18:52;;;;;;;;;;;;;;;;;;5101249;28;19973;-80
2022/03/22 12:21:18;;;;;;;;;;;;;;;;;;5105495;28;19919;-80
2022/03/22 12:23:44;;;;;;;;;;;;;;;;;;5098969;28;19920;-80
2022/03/22 12:26:10;;;;;;;;;;;;;;;;;;5101764;28;19923;-81
2022/03/22 12:28:45;;;;;;;;;;;;;;;;;;5095130;28;19920;-80
2022/03/22 12:31:11;;;;;;;;;;;;;;;;;;5099822;28;19916;-80
2022/03/22 12:33:37;;;;;;;;;;;;;;;;;;5108041;28;20293;-80
2022/03/22 12:36:03;;;;;;;;;;;;;;;;;;5099446;28;19923;-80
2022/03/22 12:38:29;;;;;;;;;;;;;;;;;;5098698;28;19924;-81
2022/03/22 12:40:54;;;;;;;;;;;;;;;;;;5099100;28;19928;-82
2022/03/22 12:43:20;;;;;;;;;;;;;;;;;;5101607;28;19919;-82
2022/03/22 12:45:46;;;;;;;;;;;;;;;;;;5105561;28;19923;-83
2022/03/22 12:48:14;;;;;;;;;;;;;;;;;;5096431;28;19916;-83
2022/03/22 12:50:39;;;;;;;;;;;;;;;;;;5100262;28;19932;-80
2022/03/22 12:53:05;;;;;;;;;;;;;;;;;;5100401;27;20334;-81
2022/03/22 12:55:30;;;;;;;;;;;;;;;;;;5104016;28;19920;-80
2022/03/22 12:58:00;;;;;;;;;;;;;;;;;;5103292;28;19920;-83
2022/03/22 13:00:27;;;;;;;;;;;;;;;;;;5107853;28;20333;-81
2022/03/22 13:02:53;;;;;;;;;;;;;;;;;;5097968;28;19924;-80
2022/03/22 13:05:28;;;;;;;;;;;;;;;;;;5100871;27;19926;-79
2022/03/22 13:07:53;;;;;;;;;;;;;;;;;;5109691;28;19955;-78
2022/03/22 13:13:04;;;;;;;;;;;;;;;;;;5094191;28;19922;-79
2022/03/22 13:15:29;;;;;;;;;;;;;;;;;;5100959;28;19916;-81
2022/03/22 13:17:54;;;;;;;;;;;;;;;;;;5097516;28;19916;-78
2022/03/22 13:20:24;;;;;;;;;;;;;;;;;;5112785;28;19938;-80
2022/03/22 13:22:53;;;;;;;;;;;;;;;;;;5092068;28;19923;-82
2022/03/22 13:25:23;;;;;;;;;;;;;;;;;;5093860;28;19916;-80
2022/03/22 13:27:53;;;;;;;;;;;;;;;;;;5093970;28;19916;-80
2022/03/22 13:30:19;;;;;;;;;;;;;;;;;;5093652;28;19916;-79
2022/03/22 13:32:45;;;;;;;;;;;;;;;;;;5109345;28;19919;-79
2022/03/22 13:35:11;;;;;;;;;;;;;;;;;;5114009;28;19915;-80
2022/03/22 13:37:45;;;;;;;;;;;;;;;;;;5114006;28;19923;-78
2022/03/22 13:40:11;;;;;;;;;;;;;;;;;;5113748;28;19959;-79
2022/03/22 13:42:37;;;;;;;;;;;;;;;;;;5114013;28;19941;-79
2022/03/22 13:45:04;;;;;;;;;;;;;;;;;;5113809;28;20010;-80
2022/03/22 13:47:33;;;;;;;;;;;;;;;;;;5110984;28;19923;-81
2022/03/22 13:50:10;;;;;;;;;;;;;;;;;;5110267;28;19920;-81
2022/03/22 13:52:36;;;;;;;;;;;;;;;;;;5113887;28;20391;-81
2022/03/22 13:55:12;;;;;;;;;;;;;;;;;;5113589;28;19992;-81
2022/03/22 13:57:39;;;;;;;;;;;;;;;;;;5113721;28;20064;-81
2022/03/22 14:00:05;;;;;;;;;;;;;;;;;;5113521;28;20329;-81
2022/03/22 14:02:30;;;;;;;;;;;;;;;;;;5113638;28;19922;-80
2022/03/22 14:04:56;;;;;;;;;;;;;;;;;;5113559;28;20006;-80
2022/03/22 14:07:22;;;;;;;;;;;;;;;;;;5113605;28;19919;-79
2022/03/22 14:09:48;;;;;;;;;;;;;;;;;;5104323;28;20328;-81
2022/03/22 14:12:13;;;;;;;;;;;;;;;;;;5097952;28;19915;-81
2022/03/22 14:14:39;;;;;;;;;;;;;;;;;;5113470;28;19947;-82
2022/03/22 14:17:04;;;;;;;;;;;;;;;;;;5103575;28;19932;-80
2022/03/22 14:19:29;;;;;;;;;;;;;;;;;;5092962;28;20368;-82
2022/03/22 14:21:55;;;;;;;;;;;;;;;;;;5093342;28;20275;-80
2022/03/22 14:24:21;;;;;;;;;;;;;;;;;;5093028;28;19920;-83
2022/03/22 14:26:46;;;;;;;;;;;;;;;;;;5112487;28;19916;-82
2022/03/22 14:29:12;;;;;;;;;;;;;;;;;;5113321;28;20340;-81
2022/03/22 14:31:39;;;;;;;;;;;;;;;;;;5102245;28;19924;-83
2022/03/22 14:34:04;;;;;;;;;;;;;;;;;;5092806;28;19920;-82
2022/03/22 14:36:30;;;;;;;;;;;;;;;;;;5093573;28;20360;-82
2022/03/22 14:38:55;;;;;;;;;;;;;;;;;;5110543;28;20787;-81
2022/03/22 14:41:27;;;;;;;;;;;;;;;;;;5113016;28;19928;-81
2022/03/22 14:43:54;;;;;;;;;;;;;;;;;;5093085;28;19920;-81
2022/03/22 14:46:20;;;;;;;;;;;;;;;;;;5092790;28;19916;-81
2022/03/22 14:48:49;;;;;;;;;;;;;;;;;;5092778;28;19939;-81
2022/03/22 14:51:16;;;;;;;;;;;;;;;;;;5092772;28;19920;-81
2022/03/22 14:59:09;;;;;;;;;;;;;;;;;;5092723;28;19923;-79
2022/03/22 15:01:36;;;;;;;;;;;;;;;;;;5092687;28;20283;-78
2022/03/22 15:04:02;;;;;;;;;;;;;;;;;;5092006;28;19926;-79
2022/03/22 15:06:28;;;;;;;;;;;;;;;;;;5110113;28;19916;-78
2022/03/22 15:08:54;;;;;;;;;;;;;;;;;;5111192;28;20022;-78
2022/03/22 15:11:20;;;;;;;;;;;;;;;;;;5112565;28;19998;-81
2022/03/22 15:13:45;;;;;;;;;;;;;;;;;;5111536;28;19916;-79
2022/03/22 15:16:11;;;;;;;;;;;;;;;;;;5111599;28;19923;-79
2022/03/22 15:18:37;;;;;;;;;;;;;;;;;;5111658;28;19916;-79
2022/03/22 15:21:04;;;;;;;;;;;;;;;;;;5112800;28;19941;-80
2022/03/22 15:23:30;;;;;;;;;;;;;;;;;;5112752;28;19926;-79
2022/03/22 15:25:56;;;;;;;;;;;;;;;;;;5111665;28;19923;-86
2022/03/22 15:28:22;;;;;;;;;;;;;;;;;;5112868;28;19915;-78
2022/03/22 15:30:49;;;;;;;;;;;;;;;;;;5113008;28;19941;-78
2022/03/22 15:33:15;;;;;;;;;;;;;;;;;;5147941;27;19919;-79
2022/03/22 15:35:40;;;;;;;;;;;;;;;;;;5103800;28;19923;-77
2022/03/22 15:38:06;;;;;;;;;;;;;;;;;;5093109;28;19916;-80
2022/03/22 15:40:32;;;;;;;;;;;;;;;;;;5094253;28;19946;-77
2022/03/22 15:42:57;;;;;;;;;;;;;;;;;;5095950;28;19916;-81
2022/03/22 15:45:24;;;;;;;;;;;;;;;;;;5095896;28;19919;-78
2022/03/22 15:47:52;;;;;;;;;;;;;;;;;;5094714;28;19916;-79
2022/03/22 15:50:19;;;;;;;;;;;;;;;;;;5095971;28;19923;-80
2022/03/22 15:52:46;;;;;;;;;;;;;;;;;;5095826;28;19923;-79
2022/03/22 15:55:12;;;;;;;;;;;;;;;;;;5096215;28;20257;-80
2022/03/22 15:57:38;;;;;;;;;;;;;;;;;;5099682;28;19920;-84
2022/03/22 16:00:05;;;;;;;;;;;;;;;;;;5094182;28;20279;-80
2022/03/22 16:02:30;;;;;;;;;;;;;;;;;;5094339;28;19962;-78
2022/03/22 16:04:56;;;;;;;;;;;;;;;;;;5096062;28;19916;-82
2022/03/22 16:07:22;;;;;;;;;;;;;;;;;;5095397;28;19930;-83
2022/03/22 16:09:47;;;;;;;;;;;;;;;;;;5095730;28;20364;-83
2022/03/22 16:12:13;;;;;;;;;;;;;;;;;;5100136;28;19916;-81
2022/03/22 16:14:38;;;;;;;;;;;;;;;;;;5104140;28;19927;-81
2022/03/22 16:17:05;;;;;;;;;;;;;;;;;;5093849;28;19974;-81
2022/03/22 16:19:31;;;;;;;;;;;;;;;;;;5092898;28;19916;-81
2022/03/22 16:21:56;;;;;;;;;;;;;;;;;;5095598;28;19923;-80
2022/03/22 16:24:21;;;;;;;;;;;;;;;;;;5095084;28;19916;-81
2022/03/22 16:26:47;;;;;;;;;;;;;;;;;;5095239;28;19923;-81
2022/03/22 16:29:15;;;;;;;;;;;;;;;;;;5095271;28;19917;-80
2022/03/22 16:31:40;;;;;;;;;;;;;;;;;;5095100;28;19916;-80
2022/03/22 16:36:50;;;;;;;;;;;;;;;;;;5096760;28;19938;-79
2022/03/22 16:39:25;;;;;;;;;;;;;;;;;;5113142;28;19920;-78
2022/03/22 16:41:58;;;;;;;;;;;;;;;;;;5114924;28;19927;-78
2022/03/22 16:44:31;;;;;;;;;;;;;;;;;;5114165;28;20287;-78
2022/03/22 16:46:57;;;;;;;;;;;;;;;;;;5115182;28;19918;-78
2022/03/22 16:49:22;;;;;;;;;;;;;;;;;;5115233;28;19916;-78
2022/03/22 16:51:48;;;;;;;;;;;;;;;;;;5115152;28;20284;-77
2022/03/22 16:54:13;;;;;;;;;;;;;;;;;;5114981;28;20093;-78
2022/03/22 16:56:39;;;;;;;;;;;;;;;;;;5147892;27;19916;-77
2022/03/22 16:59:05;;;;;;;;;;;;;;;;;;5114884;28;19965;-77
2022/03/22 17:01:31;;;;;;;;;;;;;;;;;;5113586;28;19920;-83
2022/03/22 17:03:57;;;;;;;;;;;;;;;;;;5115049;28;20359;-80
2022/03/22 17:06:22;;;;;;;;;;;;;;;;;;5114835;28;19916;-80
2022/03/22 17:08:48;;;;;;;;;;;;;;;;;;5114702;28;20343;-81
2022/03/22 17:11:13;;;;;;;;;;;;;;;;;;5114572;28;20438;-81
2022/03/22 17:13:39;;;;;;;;;;;;;;;;;;5114557;28;19939;-83
2022/03/22 17:16:06;;;;;;;;;;;;;;;;;;5114415;28;19963;-81
2022/03/22 17:18:32;;;;;;;;;;;;;;;;;;5114548;28;19920;-80
2022/03/22 17:20:57;;;;;;;;;;;;;;;;;;5114497;28;19923;-82
2022/03/22 17:23:24;;;;;;;;;;;;;;;;;;5112963;28;20288;-81
2022/03/22 17:25:49;;;;;;;;;;;;;;;;;;5114350;28;19923;-82
2022/03/22 17:28:15;;;;;;;;;;;;;;;;;;5114226;28;19912;-82
2022/03/22 17:30:41;;;;;;;;;;;;;;;;;;5114262;28;20405;-79
2022/03/22 17:33:07;;;;;;;;;;;;;;;;;;5114275;28;19911;-80